Vilanova de Sau





Hora UTC 08:00
Temperatura 22.7 ºC
Humedad 72.2 %
Presión 1021.2 hPa
Pluja 0.0 mm
Velocidad viento 6.9 km/h
Dirección viento ENE
Radiación solar 547.4 W/m²

Datos diarios 2022-07-07



Hora UTC (invierno +1h; verano +2h)
Temperatura (ºC) Humedad (%) Presión (hPa) Velocidad viento (km/h) Precipitación (mm) Radiación solar (W/m²)
Hora UTC Aire Humedad Presión Vel. Dir. Vel. Max Dir. Intent. máx 5 min. Rad. Sol.
00:05 18.1 93.1 1020.6 0.7 WSW 0.7 WSW 0.0 0.0
00:10 18.1 93.3 1020.7 0.0 NNE 0.0 WSW 0.0 0.0
00:15 18.0 93.2 1020.7 0.0 NNE 0.0 WSW 0.0 0.0
00:20 18.0 93.3 1020.6 0.0 NNE 0.0 SW 0.0 0.0
00:25 17.9 93.3 1020.6 0.0 NNE 0.0 E 0.0 0.0
00:30 17.8 93.4 1020.7 0.0 NNE 0.0 E 0.0 0.0
00:35 17.7 93.6 1020.7 0.0 NNE 0.0 E 0.0 0.0
00:40 17.6 94.0 1020.7 0.0 NNE 0.0 SE 0.0 0.0
00:45 17.6 94.2 1020.8 0.0 NNE 0.0 SE 0.0 0.0
00:50 17.6 94.2 1020.8 0.0 NNE 0.0 SE 0.0 0.0
00:55 17.5 94.3 1020.8 0.0 NNE 0.0 SE 0.0 0.0
01:00 17.4 94.4 1020.8 0.0 NNE 0.0 SSW 0.0 0.0
01:05 17.4 94.8 1020.8 0.0 NNE 0.0 SSW 0.0 0.0
01:10 17.5 94.8 1020.8 0.0 NNE 0.0 SSW 0.0 0.0
01:15 17.5 94.9 1020.8 0.0 NNE 0.0 S 0.0 0.0
01:20 17.5 94.8 1020.8 0.0 NNE 0.0 S 0.0 0.0
01:25 17.6 94.7 1020.8 0.0 NNE 0.0 S 0.0 0.0
01:30 17.6 94.3 1020.8 1.0 S 6.1 S 0.0 0.0
01:35 17.6 94.2 1020.8 0.4 WNW 6.1 WNW 0.0 0.0
01:40 17.6 94.2 1020.8 1.1 WNW 6.1 WNW 0.0 0.0
01:45 17.5 94.2 1020.8 0.3 WNW 3.4 WNW 0.0 0.0
01:50 17.5 94.5 1020.8 2.0 W 6.1 WNW 0.0 0.0
01:55 17.6 94.6 1020.8 2.0 WSW 6.1 SW 0.0 0.0
02:00 17.6 94.5 1020.7 0.8 SW 6.1 SW 0.0 0.0
02:05 17.6 94.5 1020.7 0.0 NNE 0.0 SW 0.0 0.0
02:10 17.7 94.6 1020.7 0.0 NNE 0.0 SW 0.0 0.0
02:15 17.6 94.4 1020.7 0.0 NNE 0.0 SW 0.0 0.0
02:20 17.6 94.5 1020.6 0.0 NNE 0.0 SW 0.0 0.0
02:25 17.6 94.4 1020.6 0.0 NNE 0.0 SW 0.0 0.0
02:30 17.4 94.0 1020.6 0.0 NNE 0.0 SW 0.0 0.0
02:35 17.4 94.1 1020.6 0.0 NNE 0.0 SW 0.0 0.0
02:40 17.4 94.4 1020.6 0.0 NNE 0.0 SW 0.0 0.0
02:45 17.4 94.6 1020.6 0.0 NNE 0.0 SW 0.0 0.0
02:50 17.4 94.6 1020.5 0.0 NNE 0.0 SW 0.0 0.0
02:55 17.4 94.4 1020.4 0.2 SW 3.4 SW 0.0 0.0
03:00 17.3 94.6 1020.4 1.3 SW 6.1 SW 0.0 0.0
03:05 17.4 94.7 1020.3 0.4 SW 6.1 SW 0.0 0.0
03:10 17.3 94.7 1020.4 0.0 NNE 0.0 SW 0.0 0.0
03:15 17.4 94.8 1020.5 0.1 WNW 3.4 WNW 0.0 0.0
03:20 17.4 94.8 1020.5 0.0 NNE 0.0 WNW 0.0 0.0
03:25 17.5 94.7 1020.5 0.0 NNE 0.0 WNW 0.0 0.0
03:30 17.5 94.6 1020.5 0.0 NNE 0.0 WNW 0.0 0.0
03:35 17.5 94.6 1020.5 0.0 NNE 0.0 WNW 0.0 0.0
03:40 17.5 94.6 1020.6 0.0 NNE 0.0 WNW 0.0 0.0
03:45 17.5 94.6 1020.5 0.0 NNE 0.0 WNW 0.0 0.0
03:50 17.5 94.6 1020.5 0.0 NNE 0.0 WNW 0.0 0.0
03:55 17.4 94.5 1020.5 0.0 NNE 0.0 WNW 0.0 0.0
04:00 17.3 94.5 1020.5 0.0 NNE 0.0 WNW 0.0 0.0
04:05 17.1 94.6 1020.5 0.0 NNE 0.0 WNW 0.0 0.1
04:10 17.0 94.7 1020.5 0.0 NNE 0.0 WNW 0.0 0.3
04:15 16.9 94.8 1020.5 0.0 NNE 0.0 WNW 0.0 0.9
04:20 16.7 95.0 1020.4 0.0 NNE 0.0 WNW 0.0 2.0
04:25 16.6 95.1 1020.4 0.0 NNE 0.0 WNW 0.0 3.0
04:30 16.5 95.3 1020.5 0.0 NNE 0.0 WNW 0.0 3.8
04:35 16.5 95.5 1020.5 0.0 NNE 0.0 WNW 0.0 4.9
04:40 16.4 95.5 1020.5 0.0 NNE 0.0 WNW 0.0 5.7
04:45 16.3 95.6 1020.6 0.0 NNE 0.0 WNW 0.0 8.1
04:50 16.3 95.7 1020.6 0.0 NNE 0.0 WNW 0.0 12.0
04:55 16.3 95.8 1020.7 0.0 NNE 0.0 WNW 0.0 14.9
05:00 16.4 96.0 1020.7 0.0 NNE 0.0 WNW 0.0 17.6
05:05 16.4 96.0 1020.7 0.0 NNE 0.0 WNW 0.0 20.7
05:10 16.4 96.0 1020.7 0.0 NNE 0.0 WNW 0.0 24.0
05:15 16.5 96.0 1020.8 0.0 NNE 0.0 WNW 0.0 30.9
05:20 16.6 96.0 1020.8 0.0 NNE 0.0 WNW 0.0 39.3
05:25 16.7 96.0 1020.8 0.0 NNE 0.0 WNW 0.0 43.8
05:30 16.9 95.9 1020.9 0.0 NNE 0.0 WNW 0.0 52.9
05:35 17.0 95.8 1020.9 0.0 NNE 0.0 WNW 0.0 53.6
05:40 17.2 95.6 1021.0 0.0 NNE 0.0 WNW 0.0 55.9
05:45 17.2 95.2 1021.0 0.0 NNE 0.0 WNW 0.0 55.2
05:50 17.4 95.1 1021.0 0.0 NNE 0.0 WNW 0.0 65.0
05:55 17.7 94.9 1021.0 0.0 NNE 0.0 WNW 0.0 157.4
06:00 18.2 93.9 1020.9 0.0 NNE 0.0 WNW 0.0 216.8
06:05 18.8 91.1 1021.0 0.0 NNE 0.0 WNW 0.0 188.1
06:10 19.0 88.6 1021.0 0.0 NNE 0.0 NNE 0.0 253.0
06:15 19.2 87.3 1021.0 0.0 NNE 0.0 ESE 0.0 114.1
06:20 19.0 87.5 1021.1 0.0 NNE 0.0 ESE 0.0 116.5
06:25 18.8 88.6 1021.1 0.0 NNE 0.0 ENE 0.0 194.0
06:30 19.1 87.8 1021.0 0.0 NNE 0.0 ENE 0.0 199.0
06:35 19.3 87.0 1021.0 1.7 ENE 6.1 ENE 0.0 275.1
06:40 19.4 86.2 1021.0 4.9 ENE 6.1 ENE 0.0 260.4
06:45 19.5 86.0 1021.0 3.1 ENE 6.1 ENE 0.0 289.9
06:50 19.8 84.7 1021.1 4.1 ENE 8.8 ENE 0.0 419.1
06:55 20.2 83.5 1021.1 4.3 NE 8.8 ENE 0.0 411.7
07:00 20.8 81.0 1021.2 2.2 N 8.8 NNE 0.0 380.3
07:05 21.2 79.6 1021.2 2.1 NNE 6.1 ENE 0.0 394.2
07:10 21.7 77.6 1021.2 2.1 NE 6.1 ENE 0.0 405.6
07:15 21.8 76.3 1021.2 3.4 NNE 6.1 E 0.0 418.6
07:20 21.8 76.3 1021.2 3.2 NNE 8.8 ENE 0.0 434.0
07:25 21.7 76.7 1021.2 3.7 NE 8.8 ENE 0.0 446.7
07:30 21.8 75.6 1021.2 3.7 NNE 8.8 NNE 0.0 467.1
07:35 22.2 74.8 1021.2 4.2 NE 8.8 NNE 0.0 478.1
07:40 22.4 73.3 1021.2 4.1 NNE 8.8 NNE 0.0 489.2
07:45 22.6 72.7 1021.2 6.1 NNE 11.5 NNE 0.0 506.4
07:50 22.7 72.9 1021.2 4.8 ENE 8.8 NE 0.0 520.8
07:55 22.8 72.5 1021.2 4.9 ENE 8.8 ENE 0.0 532.6
08:00 22.7 72.2 1021.2 6.9 ENE 11.5 ENE 0.0 547.4
Máxima 23.0 96.0 1021.2 6.9 ENE 11.5 ENE 0.0 547.4
Mínima 16.3 72.2 1020.3
Total 0.0